sensor_id;sensor_type;location;lat;lon;timestamp;P1;durP1;ratioP1;P2;durP2;ratioP2
43877;SDS011;29815;48.184;11.268;2023-07-29T00:01:15;6.18;;;4.28;;
43877;SDS011;29815;48.184;11.268;2023-07-29T00:03:44;6.13;;;4.07;;
43877;SDS011;29815;48.184;11.268;2023-07-29T00:06:14;5.95;;;4.30;;
43877;SDS011;29815;48.184;11.268;2023-07-29T00:08:43;7.30;;;4.13;;
43877;SDS011;29815;48.184;11.268;2023-07-29T00:11:13;4.78;;;3.72;;
43877;SDS011;29815;48.184;11.268;2023-07-29T00:13:44;5.20;;;4.70;;
43877;SDS011;29815;48.184;11.268;2023-07-29T00:16:14;6.13;;;4.45;;
43877;SDS011;29815;48.184;11.268;2023-07-29T00:18:44;6.55;;;4.47;;
43877;SDS011;29815;48.184;11.268;2023-07-29T00:21:14;5.90;;;3.90;;
43877;SDS011;29815;48.184;11.268;2023-07-29T00:23:44;5.38;;;4.38;;
43877;SDS011;29815;48.184;11.268;2023-07-29T00:26:14;5.43;;;4.53;;
43877;SDS011;29815;48.184;11.268;2023-07-29T00:28:45;5.57;;;3.70;;
43877;SDS011;29815;48.184;11.268;2023-07-29T00:31:14;5.15;;;3.90;;
43877;SDS011;29815;48.184;11.268;2023-07-29T00:33:44;5.68;;;4.20;;
43877;SDS011;29815;48.184;11.268;2023-07-29T00:36:15;5.97;;;4.13;;
43877;SDS011;29815;48.184;11.268;2023-07-29T00:38:45;4.70;;;3.80;;
43877;SDS011;29815;48.184;11.268;2023-07-29T00:41:15;6.07;;;4.50;;
43877;SDS011;29815;48.184;11.268;2023-07-29T00:43:47;5.32;;;4.20;;
43877;SDS011;29815;48.184;11.268;2023-07-29T00:46:16;5.53;;;3.78;;
43877;SDS011;29815;48.184;11.268;2023-07-29T00:48:47;4.60;;;3.38;;
43877;SDS011;29815;48.184;11.268;2023-07-29T00:51:16;5.68;;;3.85;;
43877;SDS011;29815;48.184;11.268;2023-07-29T00:53:46;6.43;;;3.92;;
43877;SDS011;29815;48.184;11.268;2023-07-29T00:56:15;4.25;;;3.80;;
43877;SDS011;29815;48.184;11.268;2023-07-29T00:58:46;5.57;;;4.30;;
43877;SDS011;29815;48.184;11.268;2023-07-29T01:01:16;5.18;;;4.68;;
43877;SDS011;29815;48.184;11.268;2023-07-29T01:03:46;5.45;;;3.60;;
43877;SDS011;29815;48.184;11.268;2023-07-29T01:06:18;6.13;;;3.90;;
43877;SDS011;29815;48.184;11.268;2023-07-29T01:08:59;6.82;;;4.20;;
43877;SDS011;29815;48.184;11.268;2023-07-29T01:11:35;4.53;;;3.90;;
43877;SDS011;29815;48.184;11.268;2023-07-29T01:14:21;5.65;;;3.90;;
43877;SDS011;29815;48.184;11.268;2023-07-29T01:17:03;4.93;;;3.63;;
43877;SDS011;29815;48.184;11.268;2023-07-29T01:19:43;5.13;;;3.72;;
43877;SDS011;29815;48.184;11.268;2023-07-29T01:22:30;6.47;;;4.13;;
43877;SDS011;29815;48.184;11.268;2023-07-29T01:25:03;5.22;;;3.47;;
43877;SDS011;29815;48.184;11.268;2023-07-29T01:27:34;7.03;;;3.63;;
43877;SDS011;29815;48.184;11.268;2023-07-29T01:30:04;7.22;;;3.30;;
43877;SDS011;29815;48.184;11.268;2023-07-29T01:32:38;4.85;;;3.05;;
43877;SDS011;29815;48.184;11.268;2023-07-29T01:35:15;5.65;;;3.55;;
43877;SDS011;29815;48.184;11.268;2023-07-29T01:37:59;8.57;;;3.67;;
43877;SDS011;29815;48.184;11.268;2023-07-29T01:40:38;6.97;;;3.70;;
43877;SDS011;29815;48.184;11.268;2023-07-29T01:43:09;5.75;;;3.78;;
43877;SDS011;29815;48.184;11.268;2023-07-29T01:45:40;6.07;;;2.92;;
43877;SDS011;29815;48.184;11.268;2023-07-29T01:48:09;4.93;;;3.35;;
43877;SDS011;29815;48.184;11.268;2023-07-29T01:50:39;4.82;;;3.13;;
43877;SDS011;29815;48.184;11.268;2023-07-29T01:53:09;5.43;;;2.88;;
43877;SDS011;29815;48.184;11.268;2023-07-29T01:55:40;4.18;;;3.25;;
43877;SDS011;29815;48.184;11.268;2023-07-29T01:58:12;5.32;;;3.05;;
43877;SDS011;29815;48.184;11.268;2023-07-29T02:00:47;4.85;;;3.30;;
43877;SDS011;29815;48.184;11.268;2023-07-29T02:03:16;4.60;;;3.38;;
43877;SDS011;29815;48.184;11.268;2023-07-29T02:05:46;4.70;;;3.30;;
43877;SDS011;29815;48.184;11.268;2023-07-29T02:08:16;4.95;;;3.45;;
43877;SDS011;29815;48.184;11.268;2023-07-29T02:10:47;6.50;;;3.53;;
43877;SDS011;29815;48.184;11.268;2023-07-29T02:13:16;5.60;;;3.38;;
43877;SDS011;29815;48.184;11.268;2023-07-29T02:15:46;4.25;;;3.53;;
43877;SDS011;29815;48.184;11.268;2023-07-29T02:18:15;4.28;;;2.80;;
43877;SDS011;29815;48.184;11.268;2023-07-29T02:20:46;4.20;;;3.13;;
43877;SDS011;29815;48.184;11.268;2023-07-29T02:23:17;4.53;;;3.53;;
43877;SDS011;29815;48.184;11.268;2023-07-29T02:25:48;4.55;;;3.28;;
43877;SDS011;29815;48.184;11.268;2023-07-29T02:28:18;3.70;;;3.10;;
43877;SDS011;29815;48.184;11.268;2023-07-29T02:30:48;3.33;;;3.00;;
43877;SDS011;29815;48.184;11.268;2023-07-29T02:33:42;6.32;;;3.17;;
43877;SDS011;29815;48.184;11.268;2023-07-29T02:36:13;6.45;;;3.53;;
43877;SDS011;29815;48.184;11.268;2023-07-29T02:38:42;7.30;;;3.95;;
43877;SDS011;29815;48.184;11.268;2023-07-29T02:41:15;4.30;;;2.92;;
43877;SDS011;29815;48.184;11.268;2023-07-29T02:43:47;3.80;;;2.65;;
43877;SDS011;29815;48.184;11.268;2023-07-29T02:46:18;5.07;;;3.35;;
43877;SDS011;29815;48.184;11.268;2023-07-29T02:48:48;3.95;;;3.08;;
43877;SDS011;29815;48.184;11.268;2023-07-29T02:51:20;5.07;;;3.03;;
43877;SDS011;29815;48.184;11.268;2023-07-29T02:53:49;4.85;;;3.53;;
43877;SDS011;29815;48.184;11.268;2023-07-29T02:56:21;5.25;;;3.47;;
43877;SDS011;29815;48.184;11.268;2023-07-29T02:58:51;3.85;;;3.20;;
43877;SDS011;29815;48.184;11.268;2023-07-29T03:01:20;4.20;;;2.30;;
43877;SDS011;29815;48.184;11.268;2023-07-29T03:03:52;4.40;;;2.75;;
43877;SDS011;29815;48.184;11.268;2023-07-29T03:06:22;6.40;;;3.17;;
43877;SDS011;29815;48.184;11.268;2023-07-29T03:08:52;3.25;;;2.60;;
43877;SDS011;29815;48.184;11.268;2023-07-29T03:11:23;4.10;;;2.97;;
43877;SDS011;29815;48.184;11.268;2023-07-29T03:13:52;5.57;;;3.00;;
43877;SDS011;29815;48.184;11.268;2023-07-29T03:16:22;3.83;;;3.10;;
43877;SDS011;29815;48.184;11.268;2023-07-29T03:18:55;5.82;;;3.28;;
43877;SDS011;29815;48.184;11.268;2023-07-29T03:21:25;5.43;;;4.20;;
43877;SDS011;29815;48.184;11.268;2023-07-29T03:23:56;5.25;;;3.40;;
43877;SDS011;29815;48.184;11.268;2023-07-29T03:26:27;4.18;;;3.20;;
43877;SDS011;29815;48.184;11.268;2023-07-29T03:28:57;9.52;;;4.07;;
43877;SDS011;29815;48.184;11.268;2023-07-29T03:31:26;4.47;;;3.38;;
43877;SDS011;29815;48.184;11.268;2023-07-29T03:33:56;4.95;;;3.97;;
43877;SDS011;29815;48.184;11.268;2023-07-29T03:36:25;4.80;;;2.88;;
43877;SDS011;29815;48.184;11.268;2023-07-29T03:38:55;4.60;;;3.05;;
43877;SDS011;29815;48.184;11.268;2023-07-29T03:41:27;4.53;;;3.17;;
43877;SDS011;29815;48.184;11.268;2023-07-29T03:43:57;5.38;;;3.35;;
43877;SDS011;29815;48.184;11.268;2023-07-29T03:46:26;3.95;;;3.38;;
43877;SDS011;29815;48.184;11.268;2023-07-29T03:48:56;4.47;;;2.95;;
43877;SDS011;29815;48.184;11.268;2023-07-29T03:51:26;3.10;;;2.78;;
43877;SDS011;29815;48.184;11.268;2023-07-29T03:53:55;6.07;;;3.58;;
43877;SDS011;29815;48.184;11.268;2023-07-29T03:56:26;3.95;;;3.10;;
43877;SDS011;29815;48.184;11.268;2023-07-29T03:59:01;5.63;;;2.80;;
43877;SDS011;29815;48.184;11.268;2023-07-29T04:01:32;3.70;;;2.80;;
43877;SDS011;29815;48.184;11.268;2023-07-29T04:04:02;5.28;;;2.90;;
43877;SDS011;29815;48.184;11.268;2023-07-29T04:06:32;4.53;;;3.15;;
43877;SDS011;29815;48.184;11.268;2023-07-29T04:09:02;4.90;;;3.10;;
43877;SDS011;29815;48.184;11.268;2023-07-29T04:11:33;4.47;;;2.83;;
43877;SDS011;29815;48.184;11.268;2023-07-29T04:14:03;3.92;;;2.90;;
43877;SDS011;29815;48.184;11.268;2023-07-29T04:16:32;4.35;;;3.08;;
43877;SDS011;29815;48.184;11.268;2023-07-29T04:19:02;3.90;;;2.83;;
43877;SDS011;29815;48.184;11.268;2023-07-29T04:21:32;4.68;;;2.78;;
43877;SDS011;29815;48.184;11.268;2023-07-29T04:24:02;3.95;;;2.83;;
43877;SDS011;29815;48.184;11.268;2023-07-29T04:26:34;3.10;;;2.75;;
43877;SDS011;29815;48.184;11.268;2023-07-29T04:29:03;5.68;;;3.17;;
43877;SDS011;29815;48.184;11.268;2023-07-29T04:31:33;5.90;;;3.20;;
43877;SDS011;29815;48.184;11.268;2023-07-29T04:34:04;4.05;;;2.90;;
43877;SDS011;29815;48.184;11.268;2023-07-29T04:36:34;3.25;;;2.58;;
43877;SDS011;29815;48.184;11.268;2023-07-29T04:39:04;3.85;;;2.80;;
43877;SDS011;29815;48.184;11.268;2023-07-29T04:41:35;3.75;;;2.95;;
43877;SDS011;29815;48.184;11.268;2023-07-29T04:44:04;4.00;;;2.95;;
43877;SDS011;29815;48.184;11.268;2023-07-29T04:46:35;4.57;;;2.85;;
43877;SDS011;29815;48.184;11.268;2023-07-29T04:49:06;3.83;;;2.73;;
43877;SDS011;29815;48.184;11.268;2023-07-29T04:51:35;3.92;;;2.75;;
43877;SDS011;29815;48.184;11.268;2023-07-29T04:54:05;3.45;;;2.85;;
43877;SDS011;29815;48.184;11.268;2023-07-29T04:56:36;5.63;;;2.38;;
43877;SDS011;29815;48.184;11.268;2023-07-29T04:59:06;3.83;;;2.72;;
43877;SDS011;29815;48.184;11.268;2023-07-29T05:01:35;3.17;;;2.33;;
43877;SDS011;29815;48.184;11.268;2023-07-29T05:04:05;4.90;;;2.58;;
43877;SDS011;29815;48.184;11.268;2023-07-29T05:06:35;4.68;;;2.92;;
43877;SDS011;29815;48.184;11.268;2023-07-29T05:09:14;3.35;;;2.33;;
43877;SDS011;29815;48.184;11.268;2023-07-29T05:11:46;3.40;;;2.40;;
43877;SDS011;29815;48.184;11.268;2023-07-29T05:14:17;6.90;;;4.63;;
43877;SDS011;29815;48.184;11.268;2023-07-29T05:16:47;3.35;;;2.50;;
43877;SDS011;29815;48.184;11.268;2023-07-29T05:19:16;4.82;;;3.00;;
43877;SDS011;29815;48.184;11.268;2023-07-29T05:21:46;3.55;;;2.45;;
43877;SDS011;29815;48.184;11.268;2023-07-29T05:24:16;3.90;;;2.67;;
43877;SDS011;29815;48.184;11.268;2023-07-29T05:26:47;4.28;;;3.47;;
43877;SDS011;29815;48.184;11.268;2023-07-29T05:29:16;3.58;;;2.47;;
43877;SDS011;29815;48.184;11.268;2023-07-29T05:31:46;3.03;;;2.50;;
43877;SDS011;29815;48.184;11.268;2023-07-29T05:34:16;6.25;;;2.80;;
43877;SDS011;29815;48.184;11.268;2023-07-29T05:36:45;3.63;;;2.72;;
43877;SDS011;29815;48.184;11.268;2023-07-29T05:39:15;4.15;;;2.70;;
43877;SDS011;29815;48.184;11.268;2023-07-29T05:41:44;4.45;;;3.22;;
43877;SDS011;29815;48.184;11.268;2023-07-29T05:44:15;4.90;;;2.40;;
43877;SDS011;29815;48.184;11.268;2023-07-29T05:46:45;3.83;;;2.65;;
43877;SDS011;29815;48.184;11.268;2023-07-29T05:49:15;3.72;;;2.90;;
43877;SDS011;29815;48.184;11.268;2023-07-29T05:51:44;3.90;;;2.13;;
43877;SDS011;29815;48.184;11.268;2023-07-29T05:54:14;5.50;;;3.00;;
43877;SDS011;29815;48.184;11.268;2023-07-29T05:56:43;4.30;;;2.53;;
43877;SDS011;29815;48.184;11.268;2023-07-29T05:59:14;5.03;;;2.67;;
43877;SDS011;29815;48.184;11.268;2023-07-29T06:01:44;3.47;;;2.53;;
43877;SDS011;29815;48.184;11.268;2023-07-29T06:04:13;3.42;;;2.58;;
43877;SDS011;29815;48.184;11.268;2023-07-29T06:06:43;6.47;;;2.65;;
43877;SDS011;29815;48.184;11.268;2023-07-29T06:09:12;6.25;;;2.58;;
43877;SDS011;29815;48.184;11.268;2023-07-29T06:11:42;4.85;;;2.67;;
43877;SDS011;29815;48.184;11.268;2023-07-29T06:14:11;4.35;;;3.38;;
43877;SDS011;29815;48.184;11.268;2023-07-29T06:16:42;3.38;;;2.30;;
43877;SDS011;29815;48.184;11.268;2023-07-29T06:19:12;3.17;;;2.45;;
43877;SDS011;29815;48.184;11.268;2023-07-29T06:21:42;2.60;;;2.15;;
43877;SDS011;29815;48.184;11.268;2023-07-29T06:24:12;3.60;;;2.00;;
43877;SDS011;29815;48.184;11.268;2023-07-29T06:26:41;3.60;;;2.03;;
43877;SDS011;29815;48.184;11.268;2023-07-29T06:29:11;2.83;;;2.13;;
43877;SDS011;29815;48.184;11.268;2023-07-29T06:31:40;3.72;;;2.83;;
43877;SDS011;29815;48.184;11.268;2023-07-29T06:34:11;3.35;;;2.47;;
43877;SDS011;29815;48.184;11.268;2023-07-29T06:36:40;5.50;;;2.53;;
43877;SDS011;29815;48.184;11.268;2023-07-29T06:39:10;6.40;;;3.58;;
43877;SDS011;29815;48.184;11.268;2023-07-29T06:41:40;13.70;;;4.30;;
43877;SDS011;29815;48.184;11.268;2023-07-29T06:44:12;10.73;;;3.47;;
43877;SDS011;29815;48.184;11.268;2023-07-29T06:46:42;4.18;;;3.22;;
43877;SDS011;29815;48.184;11.268;2023-07-29T06:49:12;4.20;;;2.92;;
43877;SDS011;29815;48.184;11.268;2023-07-29T06:51:42;6.25;;;3.50;;
43877;SDS011;29815;48.184;11.268;2023-07-29T06:54:11;6.95;;;3.70;;
43877;SDS011;29815;48.184;11.268;2023-07-29T06:56:41;6.75;;;3.55;;
43877;SDS011;29815;48.184;11.268;2023-07-29T06:59:10;5.50;;;3.00;;
43877;SDS011;29815;48.184;11.268;2023-07-29T07:01:40;5.70;;;3.03;;
43877;SDS011;29815;48.184;11.268;2023-07-29T07:04:11;6.88;;;3.95;;
43877;SDS011;29815;48.184;11.268;2023-07-29T07:06:40;5.90;;;3.40;;
43877;SDS011;29815;48.184;11.268;2023-07-29T07:09:10;4.68;;;4.00;;
43877;SDS011;29815;48.184;11.268;2023-07-29T07:11:39;4.80;;;3.30;;
43877;SDS011;29815;48.184;11.268;2023-07-29T07:14:09;5.60;;;3.70;;
43877;SDS011;29815;48.184;11.268;2023-07-29T07:16:38;4.82;;;3.78;;
43877;SDS011;29815;48.184;11.268;2023-07-29T07:19:10;6.78;;;3.20;;
43877;SDS011;29815;48.184;11.268;2023-07-29T07:21:40;5.03;;;3.28;;
43877;SDS011;29815;48.184;11.268;2023-07-29T07:24:09;6.18;;;3.90;;
43877;SDS011;29815;48.184;11.268;2023-07-29T07:26:39;6.40;;;3.97;;
43877;SDS011;29815;48.184;11.268;2023-07-29T07:29:08;11.13;;;4.15;;
43877;SDS011;29815;48.184;11.268;2023-07-29T07:31:38;4.70;;;3.53;;
43877;SDS011;29815;48.184;11.268;2023-07-29T07:34:07;4.85;;;3.30;;
43877;SDS011;29815;48.184;11.268;2023-07-29T07:36:38;5.43;;;3.33;;
43877;SDS011;29815;48.184;11.268;2023-07-29T07:39:11;5.43;;;3.70;;
43877;SDS011;29815;48.184;11.268;2023-07-29T07:41:41;5.18;;;3.55;;
43877;SDS011;29815;48.184;11.268;2023-07-29T07:44:11;4.50;;;3.55;;
43877;SDS011;29815;48.184;11.268;2023-07-29T07:46:45;6.18;;;3.30;;
43877;SDS011;29815;48.184;11.268;2023-07-29T07:49:16;4.55;;;2.70;;
43877;SDS011;29815;48.184;11.268;2023-07-29T07:51:45;5.75;;;3.67;;
43877;SDS011;29815;48.184;11.268;2023-07-29T07:54:14;5.35;;;3.55;;
43877;SDS011;29815;48.184;11.268;2023-07-29T07:56:45;3.90;;;3.45;;
43877;SDS011;29815;48.184;11.268;2023-07-29T07:59:14;5.63;;;3.72;;
43877;SDS011;29815;48.184;11.268;2023-07-29T08:01:44;4.45;;;3.40;;
43877;SDS011;29815;48.184;11.268;2023-07-29T08:04:15;5.93;;;3.97;;
43877;SDS011;29815;48.184;11.268;2023-07-29T08:06:45;4.50;;;3.47;;
43877;SDS011;29815;48.184;11.268;2023-07-29T08:09:14;3.90;;;3.25;;
43877;SDS011;29815;48.184;11.268;2023-07-29T08:11:44;5.43;;;3.38;;
43877;SDS011;29815;48.184;11.268;2023-07-29T08:14:13;4.57;;;3.72;;
43877;SDS011;29815;48.184;11.268;2023-07-29T08:16:43;4.50;;;3.25;;
43877;SDS011;29815;48.184;11.268;2023-07-29T08:19:12;5.30;;;3.25;;
43877;SDS011;29815;48.184;11.268;2023-07-29T08:21:43;5.75;;;3.85;;
43877;SDS011;29815;48.184;11.268;2023-07-29T08:24:13;5.28;;;3.40;;
43877;SDS011;29815;48.184;11.268;2023-07-29T08:26:42;4.45;;;3.83;;
43877;SDS011;29815;48.184;11.268;2023-07-29T08:29:12;5.43;;;3.67;;
43877;SDS011;29815;48.184;11.268;2023-07-29T08:31:41;4.93;;;3.90;;
43877;SDS011;29815;48.184;11.268;2023-07-29T08:34:11;3.83;;;3.15;;
43877;SDS011;29815;48.184;11.268;2023-07-29T08:36:41;4.93;;;3.38;;
43877;SDS011;29815;48.184;11.268;2023-07-29T08:39:11;4.50;;;3.28;;
43877;SDS011;29815;48.184;11.268;2023-07-29T08:41:44;5.32;;;4.18;;
43877;SDS011;29815;48.184;11.268;2023-07-29T08:44:23;3.80;;;3.10;;
43877;SDS011;29815;48.184;11.268;2023-07-29T08:46:55;6.68;;;3.90;;
43877;SDS011;29815;48.184;11.268;2023-07-29T08:49:25;4.97;;;3.47;;
43877;SDS011;29815;48.184;11.268;2023-07-29T08:51:56;5.03;;;3.33;;
43877;SDS011;29815;48.184;11.268;2023-07-29T08:54:28;6.38;;;3.25;;
43877;SDS011;29815;48.184;11.268;2023-07-29T08:56:58;5.18;;;3.42;;
43877;SDS011;29815;48.184;11.268;2023-07-29T08:59:28;4.53;;;3.67;;
43877;SDS011;29815;48.184;11.268;2023-07-29T09:01:58;3.42;;;2.67;;
43877;SDS011;29815;48.184;11.268;2023-07-29T09:04:27;3.50;;;3.10;;
43877;SDS011;29815;48.184;11.268;2023-07-29T09:06:57;5.63;;;3.33;;
43877;SDS011;29815;48.184;11.268;2023-07-29T09:09:30;5.78;;;3.75;;
43877;SDS011;29815;48.184;11.268;2023-07-29T09:11:59;4.68;;;3.92;;
43877;SDS011;29815;48.184;11.268;2023-07-29T09:14:30;5.55;;;3.45;;
43877;SDS011;29815;48.184;11.268;2023-07-29T09:16:59;4.40;;;3.65;;
43877;SDS011;29815;48.184;11.268;2023-07-29T09:19:32;3.65;;;2.92;;
43877;SDS011;29815;48.184;11.268;2023-07-29T09:22:02;5.50;;;3.83;;
43877;SDS011;29815;48.184;11.268;2023-07-29T09:24:34;5.45;;;3.60;;
43877;SDS011;29815;48.184;11.268;2023-07-29T09:27:03;3.92;;;3.38;;
43877;SDS011;29815;48.184;11.268;2023-07-29T09:29:35;4.18;;;2.92;;
43877;SDS011;29815;48.184;11.268;2023-07-29T09:32:17;5.85;;;3.95;;
43877;SDS011;29815;48.184;11.268;2023-07-29T09:34:48;4.65;;;3.85;;
43877;SDS011;29815;48.184;11.268;2023-07-29T09:37:20;4.68;;;4.00;;
43877;SDS011;29815;48.184;11.268;2023-07-29T09:39:52;4.20;;;3.80;;
43877;SDS011;29815;48.184;11.268;2023-07-29T09:42:22;5.32;;;4.38;;
43877;SDS011;29815;48.184;11.268;2023-07-29T09:44:52;5.70;;;3.78;;
43877;SDS011;29815;48.184;11.268;2023-07-29T09:47:22;4.70;;;3.65;;
43877;SDS011;29815;48.184;11.268;2023-07-29T09:49:53;4.38;;;3.83;;
43877;SDS011;29815;48.184;11.268;2023-07-29T09:52:23;4.50;;;3.60;;
43877;SDS011;29815;48.184;11.268;2023-07-29T09:54:54;4.47;;;3.60;;
43877;SDS011;29815;48.184;11.268;2023-07-29T09:57:24;7.47;;;3.80;;
43877;SDS011;29815;48.184;11.268;2023-07-29T09:59:53;4.50;;;3.38;;
43877;SDS011;29815;48.184;11.268;2023-07-29T10:02:24;5.18;;;3.92;;
43877;SDS011;29815;48.184;11.268;2023-07-29T10:04:56;3.83;;;3.40;;
43877;SDS011;29815;48.184;11.268;2023-07-29T10:07:27;4.28;;;3.38;;
43877;SDS011;29815;48.184;11.268;2023-07-29T10:09:58;3.92;;;3.17;;
43877;SDS011;29815;48.184;11.268;2023-07-29T10:12:31;5.20;;;3.38;;
43877;SDS011;29815;48.184;11.268;2023-07-29T10:15:03;5.43;;;3.77;;
43877;SDS011;29815;48.184;11.268;2023-07-29T10:17:36;4.55;;;3.47;;
43877;SDS011;29815;48.184;11.268;2023-07-29T10:20:08;7.72;;;4.03;;
43877;SDS011;29815;48.184;11.268;2023-07-29T10:22:41;5.05;;;3.75;;
43877;SDS011;29815;48.184;11.268;2023-07-29T10:25:18;4.10;;;3.13;;
43877;SDS011;29815;48.184;11.268;2023-07-29T10:27:52;3.85;;;2.83;;
43877;SDS011;29815;48.184;11.268;2023-07-29T10:30:28;3.33;;;2.70;;
43877;SDS011;29815;48.184;11.268;2023-07-29T10:33:01;5.47;;;3.45;;
43877;SDS011;29815;48.184;11.268;2023-07-29T10:35:33;3.65;;;2.75;;
43877;SDS011;29815;48.184;11.268;2023-07-29T10:38:04;5.43;;;2.95;;
43877;SDS011;29815;48.184;11.268;2023-07-29T10:40:46;3.33;;;3.03;;
43877;SDS011;29815;48.184;11.268;2023-07-29T10:43:19;6.38;;;3.00;;
43877;SDS011;29815;48.184;11.268;2023-07-29T10:45:55;4.55;;;3.15;;
43877;SDS011;29815;48.184;11.268;2023-07-29T10:48:42;5.63;;;2.97;;
43877;SDS011;29815;48.184;11.268;2023-07-29T10:51:24;4.07;;;3.03;;
43877;SDS011;29815;48.184;11.268;2023-07-29T10:54:01;3.55;;;1.90;;
43877;SDS011;29815;48.184;11.268;2023-07-29T10:56:41;2.65;;;1.80;;
43877;SDS011;29815;48.184;11.268;2023-07-29T10:59:31;3.53;;;1.77;;
43877;SDS011;29815;48.184;11.268;2023-07-29T11:02:02;2.13;;;1.60;;
43877;SDS011;29815;48.184;11.268;2023-07-29T11:04:46;3.67;;;1.90;;
43877;SDS011;29815;48.184;11.268;2023-07-29T11:07:21;5.28;;;1.50;;
43877;SDS011;29815;48.184;11.268;2023-07-29T11:09:56;3.30;;;2.08;;
43877;SDS011;29815;48.184;11.268;2023-07-29T11:15:22;3.28;;;1.88;;
43877;SDS011;29815;48.184;11.268;2023-07-29T11:17:54;6.28;;;2.70;;
43877;SDS011;29815;48.184;11.268;2023-07-29T11:20:26;5.15;;;2.20;;
43877;SDS011;29815;48.184;11.268;2023-07-29T11:22:58;3.08;;;2.17;;
43877;SDS011;29815;48.184;11.268;2023-07-29T11:25:31;2.40;;;1.92;;
43877;SDS011;29815;48.184;11.268;2023-07-29T11:28:04;2.22;;;1.95;;
43877;SDS011;29815;48.184;11.268;2023-07-29T11:30:34;2.78;;;2.25;;
43877;SDS011;29815;48.184;11.268;2023-07-29T11:33:07;2.75;;;2.15;;
43877;SDS011;29815;48.184;11.268;2023-07-29T11:35:37;2.92;;;2.28;;
43877;SDS011;29815;48.184;11.268;2023-07-29T11:38:07;3.38;;;1.90;;
43877;SDS011;29815;48.184;11.268;2023-07-29T11:40:36;4.97;;;2.15;;
43877;SDS011;29815;48.184;11.268;2023-07-29T11:43:07;3.53;;;2.53;;
43877;SDS011;29815;48.184;11.268;2023-07-29T11:45:37;3.38;;;2.67;;
43877;SDS011;29815;48.184;11.268;2023-07-29T11:48:18;3.28;;;2.88;;
43877;SDS011;29815;48.184;11.268;2023-07-29T11:50:55;3.25;;;2.70;;
43877;SDS011;29815;48.184;11.268;2023-07-29T11:53:26;3.25;;;2.55;;
43877;SDS011;29815;48.184;11.268;2023-07-29T11:55:58;3.63;;;2.42;;
43877;SDS011;29815;48.184;11.268;2023-07-29T11:58:29;4.18;;;3.45;;
43877;SDS011;29815;48.184;11.268;2023-07-29T12:01:00;3.03;;;2.50;;
43877;SDS011;29815;48.184;11.268;2023-07-29T12:03:31;3.60;;;2.70;;
43877;SDS011;29815;48.184;11.268;2023-07-29T12:06:01;3.70;;;2.92;;
43877;SDS011;29815;48.184;11.268;2023-07-29T12:08:31;3.60;;;2.97;;
43877;SDS011;29815;48.184;11.268;2023-07-29T12:11:01;4.00;;;2.95;;
43877;SDS011;29815;48.184;11.268;2023-07-29T12:13:32;5.32;;;2.75;;
43877;SDS011;29815;48.184;11.268;2023-07-29T12:16:01;3.95;;;2.78;;
43877;SDS011;29815;48.184;11.268;2023-07-29T12:18:32;3.85;;;2.85;;
43877;SDS011;29815;48.184;11.268;2023-07-29T12:21:02;3.15;;;2.60;;
43877;SDS011;29815;48.184;11.268;2023-07-29T12:23:32;4.00;;;3.10;;
43877;SDS011;29815;48.184;11.268;2023-07-29T12:26:01;3.20;;;2.67;;
43877;SDS011;29815;48.184;11.268;2023-07-29T12:28:32;6.97;;;4.18;;
43877;SDS011;29815;48.184;11.268;2023-07-29T12:31:06;10.23;;;5.45;;
43877;SDS011;29815;48.184;11.268;2023-07-29T12:33:36;6.10;;;3.80;;
43877;SDS011;29815;48.184;11.268;2023-07-29T12:36:06;7.57;;;4.20;;
43877;SDS011;29815;48.184;11.268;2023-07-29T12:38:37;6.70;;;4.25;;
43877;SDS011;29815;48.184;11.268;2023-07-29T12:41:07;7.22;;;4.20;;
43877;SDS011;29815;48.184;11.268;2023-07-29T12:43:38;7.20;;;3.97;;
43877;SDS011;29815;48.184;11.268;2023-07-29T12:46:08;7.13;;;4.10;;
43877;SDS011;29815;48.184;11.268;2023-07-29T12:48:37;5.57;;;3.97;;
43877;SDS011;29815;48.184;11.268;2023-07-29T12:51:08;5.85;;;4.47;;
43877;SDS011;29815;48.184;11.268;2023-07-29T12:53:38;5.22;;;3.90;;
43877;SDS011;29815;48.184;11.268;2023-07-29T12:56:08;8.88;;;4.95;;
43877;SDS011;29815;48.184;11.268;2023-07-29T12:58:39;6.95;;;4.30;;
43877;SDS011;29815;48.184;11.268;2023-07-29T13:01:09;6.28;;;4.40;;
43877;SDS011;29815;48.184;11.268;2023-07-29T13:03:40;5.00;;;3.83;;
43877;SDS011;29815;48.184;11.268;2023-07-29T13:06:10;5.03;;;3.92;;
43877;SDS011;29815;48.184;11.268;2023-07-29T13:08:40;5.47;;;4.05;;
43877;SDS011;29815;48.184;11.268;2023-07-29T13:11:10;5.40;;;3.83;;
43877;SDS011;29815;48.184;11.268;2023-07-29T13:13:41;6.50;;;3.95;;
43877;SDS011;29815;48.184;11.268;2023-07-29T13:16:11;6.30;;;5.50;;
43877;SDS011;29815;48.184;11.268;2023-07-29T13:18:41;7.03;;;4.63;;
43877;SDS011;29815;48.184;11.268;2023-07-29T13:21:12;6.65;;;4.85;;
43877;SDS011;29815;48.184;11.268;2023-07-29T13:23:42;5.10;;;4.57;;
43877;SDS011;29815;48.184;11.268;2023-07-29T13:26:11;6.72;;;4.93;;
43877;SDS011;29815;48.184;11.268;2023-07-29T13:28:42;5.72;;;4.35;;
43877;SDS011;29815;48.184;11.268;2023-07-29T13:31:12;4.43;;;3.45;;
43877;SDS011;29815;48.184;11.268;2023-07-29T13:33:42;6.45;;;4.43;;
43877;SDS011;29815;48.184;11.268;2023-07-29T13:36:11;5.50;;;4.28;;
43877;SDS011;29815;48.184;11.268;2023-07-29T13:38:41;5.10;;;4.10;;
43877;SDS011;29815;48.184;11.268;2023-07-29T13:41:11;5.05;;;4.13;;
43877;SDS011;29815;48.184;11.268;2023-07-29T13:43:40;4.55;;;4.10;;
43877;SDS011;29815;48.184;11.268;2023-07-29T13:46:11;5.68;;;4.38;;
43877;SDS011;29815;48.184;11.268;2023-07-29T13:48:41;8.02;;;4.60;;
43877;SDS011;29815;48.184;11.268;2023-07-29T13:51:11;6.45;;;4.95;;
43877;SDS011;29815;48.184;11.268;2023-07-29T13:53:40;6.20;;;4.32;;
43877;SDS011;29815;48.184;11.268;2023-07-29T13:56:10;9.98;;;3.85;;
43877;SDS011;29815;48.184;11.268;2023-07-29T13:58:40;4.68;;;3.88;;
43877;SDS011;29815;48.184;11.268;2023-07-29T14:01:11;5.53;;;3.35;;
43877;SDS011;29815;48.184;11.268;2023-07-29T14:03:40;5.43;;;3.40;;
43877;SDS011;29815;48.184;11.268;2023-07-29T14:06:10;5.10;;;3.70;;
43877;SDS011;29815;48.184;11.268;2023-07-29T14:08:39;8.30;;;5.35;;
43877;SDS011;29815;48.184;11.268;2023-07-29T14:11:09;7.65;;;4.38;;
43877;SDS011;29815;48.184;11.268;2023-07-29T14:13:38;9.13;;;4.53;;
43877;SDS011;29815;48.184;11.268;2023-07-29T14:16:08;6.80;;;4.35;;
43877;SDS011;29815;48.184;11.268;2023-07-29T14:18:39;10.75;;;3.55;;
43877;SDS011;29815;48.184;11.268;2023-07-29T14:21:08;6.55;;;4.47;;
43877;SDS011;29815;48.184;11.268;2023-07-29T14:23:38;5.65;;;3.72;;
43877;SDS011;29815;48.184;11.268;2023-07-29T14:26:07;5.95;;;3.63;;
43877;SDS011;29815;48.184;11.268;2023-07-29T14:28:38;5.32;;;3.05;;
43877;SDS011;29815;48.184;11.268;2023-07-29T14:31:07;6.05;;;2.85;;
43877;SDS011;29815;48.184;11.268;2023-07-29T14:33:39;6.18;;;2.95;;
43877;SDS011;29815;48.184;11.268;2023-07-29T14:36:08;4.93;;;3.20;;
43877;SDS011;29815;48.184;11.268;2023-07-29T14:38:38;7.03;;;3.55;;
43877;SDS011;29815;48.184;11.268;2023-07-29T14:41:07;6.18;;;3.72;;
43877;SDS011;29815;48.184;11.268;2023-07-29T14:43:37;6.32;;;3.80;;
43877;SDS011;29815;48.184;11.268;2023-07-29T14:46:07;7.43;;;4.40;;
43877;SDS011;29815;48.184;11.268;2023-07-29T14:48:36;5.32;;;4.20;;
43877;SDS011;29815;48.184;11.268;2023-07-29T14:51:07;6.75;;;3.90;;
43877;SDS011;29815;48.184;11.268;2023-07-29T14:53:37;8.35;;;4.15;;
43877;SDS011;29815;48.184;11.268;2023-07-29T14:56:06;5.85;;;3.92;;
43877;SDS011;29815;48.184;11.268;2023-07-29T14:58:36;8.40;;;4.50;;